createdAt,value
2023-02-07T09:48:26.169Z,25.98
2023-02-07T09:51:29.543Z,25.20
2023-02-07T09:54:38.955Z,25.45
2023-02-07T09:57:50.647Z,21.50
2023-02-07T10:01:01.293Z,20.77
2023-02-07T10:04:23.220Z,19.70
2023-02-07T10:07:25.801Z,19.33
2023-02-07T10:10:37.540Z,18.52
2023-02-07T10:13:54.368Z,17.05
2023-02-07T10:17:16.505Z,15.65
2023-02-07T10:20:33.443Z,15.82
2023-02-07T10:23:43.560Z,15.10
2023-02-07T10:26:51.288Z,16.27
2023-02-07T10:29:57.788Z,15.55
2023-02-07T10:33:05.636Z,13.90
2023-02-07T10:36:15.715Z,15.15
2023-02-07T10:39:24.673Z,14.60
2023-02-07T10:42:29.806Z,14.50
2023-02-07T10:45:32.445Z,14.68
2023-02-07T10:48:35.026Z,14.05
2023-02-07T10:51:44.161Z,13.20
2023-02-07T10:54:53.368Z,13.43
2023-02-07T10:58:02.609Z,12.93
2023-02-07T11:01:07.142Z,12.23
2023-02-07T11:04:23.891Z,12.60
2023-02-07T11:07:32.506Z,12.40
2023-02-07T11:10:43.541Z,11.88
2023-02-07T11:13:48.748Z,11.77
2023-02-07T11:16:51.236Z,12.65
2023-02-07T11:19:53.960Z,12.40
2023-02-07T11:22:59.105Z,11.07
2023-02-07T11:26:04.506Z,11.55
2023-02-07T11:29:14.539Z,11.35
2023-02-07T11:32:17.889Z,11.63
2023-02-07T11:35:22.140Z,11.48
2023-02-07T11:38:29.828Z,10.73
2023-02-07T11:41:34.704Z,10.50
2023-02-07T11:44:42.649Z,10.00
2023-02-07T11:47:48.637Z,9.63
2023-02-07T11:50:55.698Z,9.60
2023-02-07T11:54:02.243Z,9.07
2023-02-07T11:57:07.183Z,9.15
2023-02-07T12:00:19.485Z,9.60
2023-02-07T12:03:25.005Z,9.43
2023-02-07T12:06:33.273Z,8.98
2023-02-07T12:09:44.260Z,8.60
2023-02-07T12:12:50.737Z,8.30
2023-02-07T12:15:57.519Z,9.38
2023-02-07T12:19:06.147Z,8.63
2023-02-07T12:22:15.259Z,9.20
2023-02-07T12:25:23.800Z,8.80
2023-02-07T12:28:32.274Z,8.85
2023-02-07T12:31:42.346Z,8.73
2023-02-07T12:34:52.725Z,8.70
2023-02-07T12:38:01.740Z,8.90
2023-02-07T12:41:14.815Z,9.15
2023-02-07T12:44:24.519Z,8.02
2023-02-07T12:47:38.155Z,7.72
2023-02-07T12:51:09.925Z,8.02
2023-02-07T12:54:29.932Z,7.50
2023-02-07T12:57:40.342Z,7.25
2023-02-07T13:00:55.781Z,7.20
2023-02-07T13:04:22.680Z,7.30
2023-02-07T13:07:39.257Z,7.20
2023-02-07T13:10:54.926Z,6.75
2023-02-07T13:14:12.840Z,7.25
2023-02-07T13:17:35.796Z,6.07
2023-02-07T13:20:48.786Z,8.10
2023-02-07T13:23:51.382Z,7.30
2023-02-07T13:26:57.423Z,7.90
2023-02-07T13:30:02.453Z,6.22
2023-02-07T13:33:17.844Z,7.53
2023-02-07T13:36:28.280Z,7.07
2023-02-07T13:39:43.521Z,6.95
2023-02-07T13:42:51.355Z,7.15
2023-02-07T13:46:01.522Z,7.72
2023-02-07T13:49:10.903Z,7.25
2023-02-07T13:52:19.829Z,8.27
2023-02-07T13:55:31.833Z,8.70
2023-02-07T13:59:11.247Z,7.85
2023-02-07T14:02:20.086Z,8.10
2023-02-07T14:05:26.590Z,8.50
2023-02-07T14:08:29.230Z,8.80
2023-02-07T14:11:37.904Z,7.20
2023-02-07T14:14:41.345Z,7.93
2023-02-07T14:18:00.087Z,7.60
2023-02-07T14:21:04.061Z,6.95
2023-02-07T14:24:21.565Z,7.03
2023-02-07T14:27:32.261Z,6.75
2023-02-07T14:30:38.979Z,6.57
2023-02-07T14:33:42.921Z,7.97
2023-02-07T14:36:45.557Z,6.97
2023-02-07T14:39:49.188Z,7.70
2023-02-07T14:42:57.945Z,8.32
2023-02-07T14:46:11.433Z,7.78
2023-02-07T14:49:21.894Z,7.68
2023-02-07T14:52:26.951Z,8.30
2023-02-07T14:55:34.408Z,8.27
2023-02-07T14:58:41.136Z,7.95
2023-02-07T15:01:43.978Z,7.72
2023-02-07T15:04:47.752Z,8.98
2023-02-07T15:07:56.738Z,8.40
2023-02-07T15:11:02.430Z,8.68
2023-02-07T15:14:06.321Z,8.73
2023-02-07T15:17:08.859Z,9.00
2023-02-07T15:20:16.580Z,7.97
2023-02-07T15:23:19.639Z,8.35
2023-02-07T15:26:22.257Z,9.07
2023-02-07T15:29:26.751Z,9.05
2023-02-07T15:32:33.626Z,9.13
2023-02-07T15:35:39.657Z,8.35
2023-02-07T15:38:42.339Z,8.85
2023-02-07T15:41:46.148Z,9.95
2023-02-07T15:44:50.830Z,10.05
2023-02-07T15:47:58.869Z,8.88
2023-02-07T15:51:05.843Z,8.57
2023-02-07T15:54:13.516Z,7.60
2023-02-07T15:57:26.939Z,7.88
2023-02-07T16:17:32.342Z,7.57
